Time;durP1;ratioP1;P1;durP2;ratioP2;P2;SDS_P1;SDS_P2;PMS_P1;PMS_P2;Temp;Humidity;BMP_temperature;BMP_pressure;BME280_temperature;BME280_humidity;BME280_pressure;Samples;Min_cycle;Max_cycle;Signal;HPM_P1;HPM_P2
2023/10/03 00:00:58;;;;;;;898.45;814.53;;;17.70;99.90;;;;;;4895462;29;20365;-91
2023/10/03 00:03:24;;;;;;;921.90;835.22;;;17.70;99.90;;;;;;4898367;29;20464;-91
2023/10/03 00:05:51;;;;;;;954.28;861.50;;;17.70;99.90;;;;;;4898347;29;20130;-91
2023/10/03 00:08:18;;;;;;;909.60;823.83;;;17.70;99.90;;;;;;4895067;29;20052;-90
2023/10/03 00:10:45;;;;;;;905.65;820.30;;;17.70;99.90;;;;;;4892259;29;20547;-91
2023/10/03 00:13:12;;;;;;;932.38;840.35;;;17.70;99.90;;;;;;4898071;29;20048;-91
2023/10/03 00:15:45;;;;;;;899.05;813.63;;;17.60;99.90;;;;;;4895424;29;20080;-91
2023/10/03 00:18:19;;;;;;;933.88;842.72;;;17.60;99.90;;;;;;4914507;29;20070;-90
2023/10/03 00:20:44;;;;;;;950.40;856.40;;;17.60;99.90;;;;;;4895936;29;20486;-91
2023/10/03 00:23:10;;;;;;;934.35;842.53;;;17.60;99.90;;;;;;4885256;29;20050;-91
2023/10/03 00:25:36;;;;;;;914.92;826.17;;;17.50;99.90;;;;;;4892975;29;20044;-91
2023/10/03 00:28:05;;;;;;;933.83;841.35;;;17.50;99.90;;;;;;4887474;29;20040;-91
2023/10/03 00:30:31;;;;;;;929.40;839.25;;;17.50;99.90;;;;;;4898242;29;20040;-91
2023/10/03 00:32:58;;;;;;;919.47;830.13;;;17.50;99.90;;;;;;4898470;29;20831;-91
2023/10/03 00:35:25;;;;;;;932.85;841.25;;;17.50;99.90;;;;;;4897868;29;20064;-91
2023/10/03 00:37:52;;;;;;;928.53;837.28;;;17.50;99.90;;;;;;4897856;29;20111;-92
2023/10/03 00:42:54;;;;;;;907.90;820.50;;;17.50;99.90;;;;;;4913575;29;20052;-91
2023/10/03 00:45:21;;;;;;;902.78;818.08;;;17.50;99.90;;;;;;4898327;29;20131;-91
2023/10/03 00:47:53;;;;;;;922.85;834.28;;;17.50;99.90;;;;;;4897630;29;20103;-91
2023/10/03 00:50:20;;;;;;;960.30;865.05;;;17.50;99.90;;;;;;4909313;29;20052;-92
2023/10/03 00:52:50;;;;;;;891.92;807.08;;;17.50;99.90;;;;;;4905376;29;20056;-91
2023/10/03 00:55:16;;;;;;;958.03;862.75;;;17.50;99.90;;;;;;4897889;29;20088;-92
2023/10/03 00:57:43;;;;;;;937.60;845.92;;;17.50;99.90;;;;;;4897325;29;20052;-92
2023/10/03 01:00:16;;;;;;;901.92;817.78;;;17.50;99.90;;;;;;4898361;29;20206;-90
2023/10/03 01:02:50;;;;;;;892.88;808.38;;;17.50;99.90;;;;;;4896871;29;20044;-91
2023/10/03 01:05:16;;;;;;;915.17;827.15;;;17.50;99.90;;;;;;4894581;29;20048;-92
2023/10/03 01:07:44;;;;;;;877.20;794.70;;;17.40;99.90;;;;;;4892096;29;20047;-91
2023/10/03 01:10:13;;;;;;;932.78;842.00;;;17.50;99.90;;;;;;4902705;29;20048;-91
2023/10/03 01:12:38;;;;;;;942.42;848.53;;;17.50;99.90;;;;;;4895736;29;20052;-91
2023/10/03 01:15:13;;;;;;;993.08;893.72;;;17.40;99.90;;;;;;4894501;29;20045;-92
2023/10/03 01:17:39;;;;;;;930.78;839.15;;;17.40;99.90;;;;;;4894609;29;20040;-92
2023/10/03 01:20:17;;;;;;;944.03;851.33;;;17.50;99.90;;;;;;4894922;29;20112;-92
2023/10/03 01:22:44;;;;;;;887.13;804.83;;;17.40;99.90;;;;;;4895907;29;20055;-91
2023/10/03 01:25:14;;;;;;;941.95;850.50;;;17.40;99.90;;;;;;4897978;29;20420;-93
2023/10/03 01:27:40;;;;;;;916.58;829.05;;;17.40;99.90;;;;;;4884476;29;20062;-91
2023/10/03 01:30:10;;;;;;;951.28;857.88;;;17.40;99.90;;;;;;4894272;29;20049;-93
2023/10/03 01:32:43;;;;;;;918.97;830.60;;;17.40;99.90;;;;;;4890925;29;20056;-93
2023/10/03 01:35:11;;;;;;;896.38;811.08;;;17.30;99.90;;;;;;4891118;29;20039;-92
2023/10/03 01:37:39;;;;;;;943.30;851.40;;;17.30;99.90;;;;;;4897676;29;20123;-92
2023/10/03 01:40:13;;;;;;;976.17;877.50;;;17.20;99.90;;;;;;4889043;29;20079;-93
2023/10/03 01:42:45;;;;;;;990.33;891.72;;;17.20;99.90;;;;;;4913643;29;20512;-93
2023/10/03 01:45:13;;;;;;;955.53;861.65;;;17.20;99.90;;;;;;4895842;29;20040;-93
2023/10/03 01:47:47;;;;;;;971.70;876.47;;;17.10;99.90;;;;;;4893464;29;20049;-93
2023/10/03 01:50:14;;;;;;;954.42;859.70;;;17.10;99.90;;;;;;4891126;29;20183;-93
2023/10/03 01:52:41;;;;;;;975.90;878.63;;;17.10;99.90;;;;;;4883192;29;20061;-93
2023/10/03 01:55:10;;;;;;;966.53;870.47;;;17.10;99.90;;;;;;4897454;29;20051;-92
2023/10/03 01:57:35;;;;;;;985.28;887.22;;;17.10;99.90;;;;;;4896967;29;20076;-92
2023/10/03 02:00:05;;;;;;;966.03;870.33;;;17.00;99.90;;;;;;4896670;29;20107;-93
2023/10/03 02:02:31;;;;;;;981.92;884.33;;;17.00;99.90;;;;;;4897312;29;20040;-93
2023/10/03 02:04:57;;;;;;;960.63;866.33;;;17.00;99.90;;;;;;4897484;29;20976;-92
2023/10/03 02:07:26;;;;;;;945.97;852.97;;;17.00;99.90;;;;;;4896897;29;20048;-92
2023/10/03 02:09:53;;;;;;;954.47;859.10;;;17.00;99.90;;;;;;4896755;29;20116;-92
2023/10/03 02:12:21;;;;;;;970.97;872.92;;;17.00;99.90;;;;;;4897506;29;20191;-92
2023/10/03 02:14:49;;;;;;;955.50;861.75;;;17.00;99.90;;;;;;4897257;29;20123;-91
2023/10/03 02:17:16;;;;;;;968.17;870.92;;;17.00;99.90;;;;;;4901198;29;20048;-92
2023/10/03 02:19:43;;;;;;;973.95;876.55;;;17.00;99.90;;;;;;4900328;29;20084;-91
2023/10/03 02:22:11;;;;;;;968.85;871.05;;;17.00;99.90;;;;;;4900716;29;20408;-91
2023/10/03 02:24:37;;;;;;;957.05;861.92;;;17.00;99.90;;;;;;4897353;29;20051;-92
2023/10/03 02:27:05;;;;;;;986.28;886.08;;;17.00;99.90;;;;;;4910486;29;20052;-94
2023/10/03 02:29:32;;;;;;;977.30;878.92;;;17.00;99.90;;;;;;4897272;29;20109;-92
2023/10/03 02:32:05;;;;;;;965.28;868.53;;;17.00;99.90;;;;;;4896824;29;20103;-94
2023/10/03 02:34:33;;;;;;;956.55;862.13;;;16.80;99.90;;;;;;4900689;29;20044;-93
2023/10/03 02:36:59;;;;;;;978.15;878.58;;;16.90;99.90;;;;;;4900591;29;20175;-93
2023/10/03 02:39:34;;;;;;;953.00;857.78;;;16.90;99.90;;;;;;4897311;29;20100;-93
2023/10/03 02:42:01;;;;;;;976.30;877.05;;;16.90;99.90;;;;;;4896958;29;20044;-92
2023/10/03 02:44:27;;;;;;;955.70;860.17;;;16.90;99.90;;;;;;4897052;29;20140;-92
2023/10/03 02:46:53;;;;;;;972.63;873.55;;;16.90;99.90;;;;;;4896858;29;20183;-92
2023/10/03 02:49:18;;;;;;;967.28;870.72;;;16.90;99.90;;;;;;4896699;29;20052;-92
2023/10/03 02:51:45;;;;;;;977.22;877.10;;;16.90;99.90;;;;;;4895721;29;20076;-92
2023/10/03 02:54:10;;;;;;;966.92;868.08;;;16.90;99.90;;;;;;4897427;29;20052;-92
2023/10/03 02:56:36;;;;;;;973.20;874.85;;;17.00;99.90;;;;;;4896219;29;20123;-91
2023/10/03 02:59:03;;;;;;;979.63;879.33;;;17.00;99.90;;;;;;4896491;29;20421;-92
2023/10/03 03:01:31;;;;;;;990.95;887.00;;;17.10;99.90;;;;;;4895876;29;20142;-91
2023/10/03 03:03:57;;;;;;;969.42;869.65;;;17.10;99.90;;;;;;4896970;29;20044;-92
2023/10/03 03:06:22;;;;;;;978.42;877.80;;;17.20;99.90;;;;;;4897440;29;20055;-92
2023/10/03 03:08:52;;;;;;;978.00;876.35;;;17.20;99.90;;;;;;4896397;29;20495;-92
2023/10/03 03:11:18;;;;;;;957.00;859.88;;;17.30;99.90;;;;;;4896912;29;20140;-93
2023/10/03 03:13:44;;;;;;;949.60;852.50;;;17.30;99.90;;;;;;4897048;29;20524;-92
2023/10/03 03:16:12;;;;;;;944.90;847.65;;;17.30;99.90;;;;;;4885491;29;20128;-92
2023/10/03 03:18:40;;;;;;;950.90;851.95;;;17.30;99.90;;;;;;4896455;29;20048;-92
2023/10/03 03:21:08;;;;;;;949.88;852.30;;;17.30;99.90;;;;;;4897907;29;20040;-91
2023/10/03 03:23:36;;;;;;;964.80;864.30;;;17.30;99.90;;;;;;4899524;29;20087;-92
2023/10/03 03:26:17;;;;;;;958.15;858.20;;;17.40;99.90;;;;;;4895436;29;20092;-91
2023/10/03 03:28:44;;;;;;;977.55;873.45;;;17.30;99.90;;;;;;4892919;29;20464;-92
2023/10/03 03:31:21;;;;;;;960.33;859.53;;;17.40;99.90;;;;;;4883099;29;20508;-92
2023/10/03 03:33:50;;;;;;;961.17;859.03;;;17.40;99.90;;;;;;4897433;29;20529;-91
2023/10/03 03:36:22;;;;;;;952.03;854.25;;;17.50;99.90;;;;;;4896569;29;20449;-93
2023/10/03 03:38:51;;;;;;;967.30;863.33;;;17.50;99.90;;;;;;4896017;29;20155;-92
2023/10/03 03:41:18;;;;;;;972.72;873.05;;;17.60;99.90;;;;;;4896870;29;20048;-92
2023/10/03 03:43:44;;;;;;;980.88;876.50;;;17.60;99.90;;;;;;4896808;29;20040;-92
2023/10/03 03:46:12;;;;;;;963.47;863.00;;;17.70;99.90;;;;;;4896585;29;20048;-92
2023/10/03 03:48:38;;;;;;;956.90;858.40;;;17.70;99.90;;;;;;4897218;29;20040;-90
2023/10/03 03:51:07;;;;;;;947.17;849.53;;;17.70;99.90;;;;;;4896368;29;20048;-92
2023/10/03 03:53:34;;;;;;;939.90;844.63;;;17.80;99.90;;;;;;4897087;29;20104;-92
2023/10/03 03:56:00;;;;;;;962.08;862.72;;;17.80;99.90;;;;;;4895950;29;20048;-92
2023/10/03 03:58:26;;;;;;;950.10;850.72;;;17.80;99.90;;;;;;4898024;29;20037;-92
2023/10/03 04:00:52;;;;;;;941.78;846.70;;;17.80;99.90;;;;;;4898529;29;20055;-92
2023/10/03 04:03:20;;;;;;;953.53;856.13;;;17.90;99.90;;;;;;4899274;29;20047;-91
2023/10/03 04:05:47;;;;;;;899.28;811.15;;;17.90;99.90;;;;;;4898662;29;20756;-92
2023/10/03 04:08:12;;;;;;;866.47;783.70;;;17.90;99.90;;;;;;4894208;29;20054;-92
2023/10/03 04:10:38;;;;;;;929.00;834.83;;;17.90;99.90;;;;;;4888730;29;20139;-92
2023/10/03 04:13:09;;;;;;;878.60;793.67;;;17.90;99.90;;;;;;4897556;29;20424;-92
2023/10/03 04:15:37;;;;;;;840.20;762.17;;;17.90;99.90;;;;;;4886923;29;20092;-92
2023/10/03 04:18:03;;;;;;;819.45;743.20;;;17.90;99.90;;;;;;4895677;29;20127;-92
2023/10/03 04:20:31;;;;;;;793.67;721.45;;;17.90;99.90;;;;;;4889726;29;20045;-91
2023/10/03 04:22:58;;;;;;;848.92;767.78;;;17.90;99.90;;;;;;4883544;29;20044;-91
2023/10/03 04:25:25;;;;;;;886.15;800.20;;;17.90;99.90;;;;;;4895859;29;20083;-91
2023/10/03 04:27:53;;;;;;;880.38;796.75;;;17.90;99.90;;;;;;4894555;29;20136;-92
2023/10/03 04:30:23;;;;;;;824.88;748.72;;;17.90;99.90;;;;;;4883655;29;20143;-91
2023/10/03 04:32:49;;;;;;;807.15;732.08;;;18.00;99.90;;;;;;4908108;29;20104;-92
2023/10/03 04:35:17;;;;;;;897.45;811.10;;;18.00;99.90;;;;;;4887022;29;20070;-92
2023/10/03 04:37:44;;;;;;;849.70;770.63;;;18.00;99.90;;;;;;4894132;29;20047;-92
2023/10/03 04:40:15;;;;;;;912.00;821.03;;;18.00;99.90;;;;;;4897737;29;20520;-91
2023/10/03 04:42:44;;;;;;;864.20;781.55;;;18.00;99.90;;;;;;4897915;29;20044;-92
2023/10/03 04:45:13;;;;;;;864.28;780.92;;;18.00;99.90;;;;;;4898178;29;20563;-92
2023/10/03 04:47:41;;;;;;;941.83;845.38;;;18.00;99.90;;;;;;4897723;29;20130;-93
2023/10/03 04:50:09;;;;;;;925.05;828.25;;;18.00;99.90;;;;;;4898235;29;20051;-92
2023/10/03 04:52:34;;;;;;;957.85;858.28;;;18.10;99.90;;;;;;4893920;29;20083;-92
2023/10/03 04:55:00;;;;;;;957.88;857.30;;;18.10;99.90;;;;;;4894102;29;20728;-92
2023/10/03 04:57:27;;;;;;;927.38;830.53;;;18.20;99.90;;;;;;4897783;29;20044;-93
2023/10/03 04:59:56;;;;;;;951.75;851.03;;;18.20;99.90;;;;;;4897494;29;20055;-93
2023/10/03 05:02:23;;;;;;;922.88;828.10;;;18.30;99.90;;;;;;4898073;29;20040;-94
2023/10/03 05:04:49;;;;;;;933.40;834.60;;;18.30;99.90;;;;;;4894295;29;20076;-93
2023/10/03 05:07:15;;;;;;;951.08;851.90;;;18.40;99.90;;;;;;4898208;29;20079;-92
2023/10/03 05:09:41;;;;;;;945.38;844.33;;;18.40;99.90;;;;;;4893796;29;20044;-94
2023/10/03 05:12:07;;;;;;;961.50;861.13;;;18.40;99.90;;;;;;4892014;29;20044;-92
2023/10/03 05:14:35;;;;;;;935.35;837.75;;;18.40;99.90;;;;;;4895821;29;20131;-92
2023/10/03 05:17:01;;;;;;;917.00;820.30;;;18.50;99.90;;;;;;4897613;29;20052;-92
2023/10/03 05:19:28;;;;;;;956.78;857.22;;;18.50;99.90;;;;;;4898054;29;20047;-93
2023/10/03 05:21:54;;;;;;;926.10;828.50;;;18.50;99.90;;;;;;4897832;29;20044;-94
2023/10/03 05:24:20;;;;;;;913.83;820.05;;;18.50;99.90;;;;;;4897475;29;20043;-94
2023/10/03 05:26:45;;;;;;;942.50;844.72;;;18.50;99.90;;;;;;4897917;29;20064;-93
2023/10/03 05:29:11;;;;;;;957.30;859.30;;;18.50;99.90;;;;;;4897545;29;20051;-94
2023/10/03 05:31:41;;;;;;;979.53;879.80;;;18.60;99.90;;;;;;4897440;29;20515;-92
2023/10/03 05:34:08;;;;;;;910.63;821.67;;;18.60;99.90;;;;;;4897420;29;20456;-92
2023/10/03 05:36:34;;;;;;;935.60;844.50;;;18.60;99.90;;;;;;4897930;29;20138;-91
2023/10/03 05:39:00;;;;;;;885.97;801.88;;;18.60;99.90;;;;;;4897644;29;20043;-91
2023/10/03 05:41:26;;;;;;;881.55;799.95;;;18.70;99.90;;;;;;4897760;29;20054;-92
2023/10/03 05:43:52;;;;;;;942.95;850.75;;;18.70;99.90;;;;;;4896796;29;20060;-91
2023/10/03 05:46:18;;;;;;;898.03;813.40;;;18.70;99.90;;;;;;4894580;29;20052;-93
2023/10/03 05:48:45;;;;;;;924.95;835.63;;;18.80;99.90;;;;;;4895353;29;20086;-92
2023/10/03 05:51:12;;;;;;;891.20;807.95;;;18.80;99.90;;;;;;4896990;29;20055;-93
2023/10/03 05:53:41;;;;;;;923.78;835.42;;;18.80;99.90;;;;;;4897444;29;20106;-94
2023/10/03 05:56:10;;;;;;;901.95;818.38;;;18.90;99.90;;;;;;4894361;29;20052;-93
2023/10/03 05:58:37;;;;;;;873.60;793.63;;;18.80;99.90;;;;;;4891998;29;20529;-93
2023/10/03 06:01:04;;;;;;;897.45;813.45;;;18.90;99.90;;;;;;4888340;29;20055;-92
2023/10/03 06:03:30;;;;;;;895.83;812.40;;;18.90;99.90;;;;;;4897887;29;20048;-93
2023/10/03 06:05:56;;;;;;;931.75;842.90;;;18.90;99.90;;;;;;4893732;29;20104;-92
2023/10/03 06:08:21;;;;;;;938.25;847.35;;;18.90;99.90;;;;;;4896505;29;20040;-93
2023/10/03 06:10:49;;;;;;;937.35;848.03;;;18.90;99.90;;;;;;4898826;29;20143;-93
2023/10/03 06:13:15;;;;;;;894.47;810.50;;;18.90;99.90;;;;;;4886917;29;20071;-92
2023/10/03 06:15:42;;;;;;;876.58;795.78;;;19.00;99.90;;;;;;4894409;29;20473;-92
2023/10/03 06:18:10;;;;;;;872.83;792.17;;;19.00;99.90;;;;;;4894591;29;20052;-93
2023/10/03 06:21:14;;;;;;;903.83;818.33;;;19.00;99.90;;;;;;4892594;29;20135;-93
2023/10/03 06:23:52;;;;;;;901.17;815.40;;;19.00;99.90;;;;;;4874386;29;20052;-92
2023/10/03 06:26:28;;;;;;;895.72;810.40;;;19.00;99.90;;;;;;4903696;29;20044;-92
2023/10/03 06:28:54;;;;;;;900.83;815.88;;;19.00;99.90;;;;;;4896597;29;20076;-91
2023/10/03 06:31:36;;;;;;;856.15;777.33;;;19.00;99.90;;;;;;4896903;29;20147;-94
2023/10/03 06:34:05;;;;;;;895.07;811.17;;;19.00;99.90;;;;;;4881020;29;20516;-94
2023/10/03 06:36:46;;;;;;;956.85;863.33;;;19.00;99.90;;;;;;4889107;29;20502;-94
2023/10/03 06:39:12;;;;;;;919.05;830.65;;;19.00;99.90;;;;;;4891877;29;20095;-92
2023/10/03 06:42:39;;;;;;;941.63;850.97;;;18.90;99.90;;;;;;4896822;29;20449;-93
2023/10/03 06:45:03;;;;;;;908.47;823.42;;;18.90;99.90;;;;;;4882443;29;20143;-93
2023/10/03 06:47:33;;;;;;;943.22;851.95;;;18.80;99.90;;;;;;4894187;29;20131;-93
2023/10/03 06:50:29;;;;;;;929.35;840.85;;;18.80;99.90;;;;;;4893937;29;20064;-94
2023/10/03 06:53:36;;;;;;;927.22;839.22;;;18.80;99.90;;;;;;4891894;29;20497;-94
2023/10/03 06:56:08;;;;;;;900.70;816.25;;;18.70;99.90;;;;;;4893593;29;20120;-93
2023/10/03 06:58:34;;;;;;;953.40;860.47;;;18.70;99.90;;;;;;4897497;29;20187;-91
2023/10/03 07:01:05;;;;;;;922.85;834.40;;;18.70;99.90;;;;;;4898553;29;20075;-92
2023/10/03 07:03:35;;;;;;;915.60;827.42;;;18.60;99.90;;;;;;4898212;29;20044;-92
2023/10/03 07:09:22;;;;;;;888.30;805.53;;;18.50;99.90;;;;;;4916007;29;20056;-92
2023/10/03 07:11:49;;;;;;;921.95;833.63;;;18.40;99.90;;;;;;4870880;29;20044;-93
2023/10/03 07:14:16;;;;;;;902.13;817.70;;;18.40;99.90;;;;;;4887000;29;20051;-91
2023/10/03 07:16:42;;;;;;;935.33;845.38;;;18.30;99.90;;;;;;4895822;29;20104;-91
2023/10/03 07:19:10;;;;;;;904.45;819.08;;;18.20;99.90;;;;;;4895468;29;20078;-90
2023/10/03 07:21:37;;;;;;;934.70;844.33;;;18.20;99.90;;;;;;4895367;29;20040;-90
2023/10/03 07:24:04;;;;;;;917.40;830.20;;;18.20;99.90;;;;;;4895888;29;20059;-93
2023/10/03 07:26:30;;;;;;;975.45;879.58;;;18.20;99.90;;;;;;4899609;29;20411;-91
2023/10/03 07:29:02;;;;;;;961.00;868.20;;;18.10;99.90;;;;;;4894374;29;20135;-93
2023/10/03 07:31:31;;;;;;;958.88;865.80;;;18.10;99.90;;;;;;4898944;29;20048;-93
2023/10/03 07:33:58;;;;;;;920.53;834.35;;;18.10;99.90;;;;;;4900410;29;20065;-94
2023/10/03 07:36:29;;;;;;;898.42;815.78;;;18.00;99.90;;;;;;4905670;29;20056;-94
2023/10/03 07:39:15;;;;;;;958.90;866.72;;;17.90;99.90;;;;;;4910418;29;20087;-94
2023/10/03 07:41:43;;;;;;;890.15;808.42;;;17.90;99.90;;;;;;4892944;29;20060;-92
2023/10/03 07:44:10;;;;;;;913.67;827.45;;;17.90;99.90;;;;;;4899955;29;20153;-91
2023/10/03 07:46:36;;;;;;;890.50;807.20;;;17.90;99.90;;;;;;4898936;29;20048;-92
2023/10/03 07:49:02;;;;;;;946.45;854.70;;;17.90;99.90;;;;;;4892774;29;20048;-92
2023/10/03 07:51:30;;;;;;;965.63;871.05;;;17.80;99.90;;;;;;4894525;29;20128;-91
2023/10/03 07:53:57;;;;;;;1001.53;901.47;;;17.80;99.90;;;;;;4896150;29;20076;-93
2023/10/03 07:56:25;;;;;;;942.92;852.42;;;17.80;99.90;;;;;;4897109;29;20127;-93
2023/10/03 07:58:53;;;;;;;969.53;873.85;;;17.70;99.90;;;;;;4896853;29;20037;-92
2023/10/03 08:01:20;;;;;;;969.92;874.05;;;17.70;99.90;;;;;;4895480;29;20043;-93
2023/10/03 08:03:46;;;;;;;947.90;857.03;;;17.70;99.90;;;;;;4896112;29;20044;-92
2023/10/03 08:06:15;;;;;;;979.83;879.28;;;17.60;99.90;;;;;;4893362;29;20563;-92
2023/10/03 08:08:41;;;;;;;985.20;884.95;;;17.60;99.90;;;;;;4899313;29;20050;-92
2023/10/03 08:11:09;;;;;;;1014.65;909.95;;;17.50;99.90;;;;;;4898797;29;20048;-93
2023/10/03 08:13:39;;;;;;;1018.05;911.78;;;17.40;99.90;;;;;;4915315;29;20064;-93
2023/10/03 08:16:10;;;;;;;986.58;886.42;;;17.40;99.90;;;;;;4897857;29;20131;-93
2023/10/03 08:18:46;;;;;;;992.03;891.40;;;17.40;99.90;;;;;;4899146;29;20048;-93
2023/10/03 08:21:14;;;;;;;977.25;877.67;;;17.30;99.90;;;;;;4886867;29;20048;-94
2023/10/03 08:23:51;;;;;;;1004.40;898.63;;;17.20;99.90;;;;;;4894098;29;20052;-94
2023/10/03 08:26:17;;;;;;;1017.03;910.10;;;17.20;99.90;;;;;;4900055;29;20040;-96
2023/10/03 08:28:43;;;;;;;1001.58;898.20;;;17.10;99.90;;;;;;4900327;29;20139;-92
2023/10/03 08:31:09;;;;;;;1016.60;910.92;;;17.10;99.90;;;;;;4887400;29;20079;-93
2023/10/03 08:33:38;;;;;;;991.58;889.40;;;17.00;99.90;;;;;;4898236;29;20048;-92
2023/10/03 08:36:14;;;;;;;1004.17;897.95;;;17.00;99.90;;;;;;4899544;29;20056;-93
2023/10/03 08:38:43;;;;;;;1007.05;901.80;;;17.00;99.90;;;;;;4912900;29;20044;-94
2023/10/03 08:41:13;;;;;;;969.40;870.70;;;16.90;99.90;;;;;;4888590;29;20087;-92
2023/10/03 08:43:39;;;;;;;1009.63;902.65;;;17.00;99.90;;;;;;4897853;29;20040;-91
2023/10/03 08:46:11;;;;;;;1006.92;900.90;;;17.00;99.90;;;;;;4889221;29;20484;-93
2023/10/03 08:48:43;;;;;;;1010.77;902.77;;;17.10;99.90;;;;;;4911106;29;20075;-93
2023/10/03 08:51:13;;;;;;;940.97;846.10;;;17.10;99.90;;;;;;4898675;29;20417;-93
2023/10/03 08:53:40;;;;;;;929.70;838.45;;;17.20;99.90;;;;;;4898139;29;20056;-92
2023/10/03 08:56:08;;;;;;;957.17;860.85;;;17.20;99.90;;;;;;4895028;29;20492;-93
2023/10/03 08:58:39;;;;;;;931.50;841.67;;;17.10;99.90;;;;;;4913613;29;20103;-94
2023/10/03 09:01:07;;;;;;;941.42;848.13;;;17.10;99.90;;;;;;4897663;29;20415;-93
2023/10/03 09:03:46;;;;;;;922.33;833.92;;;17.10;99.90;;;;;;4898123;29;20043;-95
2023/10/03 09:06:19;;;;;;;949.47;853.92;;;17.00;99.90;;;;;;4898547;29;20056;-91
2023/10/03 09:08:48;;;;;;;948.25;854.97;;;16.90;99.90;;;;;;4897367;29;20143;-92
2023/10/03 09:11:14;;;;;;;959.03;859.17;;;16.70;99.90;;;;;;4894123;29;20437;-91
2023/10/03 09:13:40;;;;;;;1018.63;908.92;;;16.50;99.90;;;;;;4885933;29;20055;-91
2023/10/03 09:16:08;;;;;;;995.67;892.92;;;16.40;99.90;;;;;;4892158;29;20093;-92
2023/10/03 09:18:43;;;;;;;985.17;883.63;;;16.40;99.90;;;;;;4890662;29;20048;-93
2023/10/03 09:21:15;;;;;;;994.92;892.88;;;16.40;99.90;;;;;;4897592;29;20052;-94
2023/10/03 09:24:09;;;;;;;975.67;874.20;;;16.40;99.90;;;;;;4884788;29;20052;-93
2023/10/03 09:26:45;;;;;;;1007.15;899.03;;;16.40;99.90;;;;;;4895230;29;20037;-94
2023/10/03 09:29:29;;;;;;;1022.38;912.55;;;16.40;99.90;;;;;;4893740;29;20044;-92
2023/10/03 09:31:57;;;;;;;991.33;889.13;;;16.30;99.90;;;;;;4892444;29;20047;-91
2023/10/03 09:34:30;;;;;;;931.63;840.72;;;16.40;99.90;;;;;;4913342;29;20040;-92
2023/10/03 09:37:02;;;;;;;982.72;878.63;;;16.30;99.90;;;;;;4897353;29;20365;-93
2023/10/03 09:39:31;;;;;;;881.80;799.03;;;16.40;99.90;;;;;;4897416;29;20044;-91
2023/10/03 09:41:58;;;;;;;923.40;830.72;;;16.30;99.90;;;;;;4897389;29;20046;-92
2023/10/03 09:44:29;;;;;;;984.28;880.17;;;16.30;99.90;;;;;;4897181;29;20087;-92
2023/10/03 09:47:00;;;;;;;1024.95;914.63;;;16.20;99.90;;;;;;4897004;29;20044;-91
2023/10/03 09:49:36;;;;;;;950.30;855.08;;;16.20;99.90;;;;;;4897648;29;20507;-92
2023/10/03 09:52:07;;;;;;;1017.40;911.60;;;16.10;99.90;;;;;;4897395;29;20073;-93
2023/10/03 09:54:35;;;;;;;982.80;882.03;;;16.00;99.90;;;;;;4896111;29;20052;-91
2023/10/03 09:57:09;;;;;;;986.47;888.17;;;15.80;99.90;;;;;;4896999;29;20048;-90
2023/10/03 09:59:38;;;;;;;1071.05;953.20;;;15.80;99.90;;;;;;4896129;29;20051;-91
2023/10/03 10:02:05;;;;;;;1042.90;931.95;;;15.80;99.90;;;;;;4896589;29;20040;-91
2023/10/03 10:04:34;;;;;;;1049.15;936.50;;;15.80;99.90;;;;;;4896984;29;20139;-90
2023/10/03 10:07:20;;;;;;;1009.97;905.60;;;15.90;99.90;;;;;;4897297;29;20071;-91
2023/10/03 10:10:19;;;;;;;1039.45;925.60;;;15.90;99.90;;;;;;4891836;29;20063;-93
2023/10/03 10:13:13;;;;;;;1103.68;946.00;;;15.90;99.90;;;;;;4899704;29;20142;-93
2023/10/03 10:16:01;;;;;;;1135.07;967.10;;;15.90;99.90;;;;;;4897097;29;20096;-95
2023/10/03 10:18:44;;;;;;;1130.95;958.88;;;15.80;99.90;;;;;;4903567;29;20067;-95
2023/10/03 10:21:20;;;;;;;1090.15;945.78;;;15.80;99.90;;;;;;4888682;29;20775;-92
2023/10/03 10:24:20;;;;;;;1024.45;913.17;;;15.70;99.90;;;;;;4885248;29;20100;-94
2023/10/03 10:26:48;;;;;;;1035.32;923.75;;;15.60;99.90;;;;;;4901375;29;20510;-93
2023/10/03 10:29:19;;;;;;;1060.72;943.50;;;15.60;99.90;;;;;;4908744;29;20116;-92
2023/10/03 10:31:49;;;;;;;1009.55;902.80;;;15.60;99.90;;;;;;4890923;29;20052;-93
2023/10/03 10:34:20;;;;;;;1120.53;953.33;;;15.60;99.90;;;;;;4893688;29;20079;-96
2023/10/03 10:36:56;;;;;;;1028.53;915.53;;;15.60;99.90;;;;;;4894594;29;20416;-94
2023/10/03 10:39:24;;;;;;;1093.88;945.60;;;15.50;99.90;;;;;;4900316;29;20037;-95
2023/10/03 10:42:10;;;;;;;1108.07;947.78;;;15.60;99.90;;;;;;4899726;29;20226;-93
2023/10/03 10:44:38;;;;;;;1131.30;964.85;;;15.60;99.90;;;;;;4897839;29;20127;-95
2023/10/03 10:47:06;;;;;;;1063.05;945.67;;;15.60;99.90;;;;;;4895247;29;20052;-92
2023/10/03 10:49:34;;;;;;;1056.80;934.63;;;15.60;99.90;;;;;;4895211;29;20084;-92
2023/10/03 10:52:02;;;;;;;1026.30;915.17;;;15.70;99.90;;;;;;4900382;29;20055;-94
2023/10/03 10:54:28;;;;;;;1044.45;922.28;;;15.80;99.90;;;;;;4896979;29;20060;-92
2023/10/03 10:57:01;;;;;;;1029.43;918.17;;;15.80;99.90;;;;;;4901663;29;20055;-93
2023/10/03 10:59:27;;;;;;;928.85;837.05;;;15.90;99.90;;;;;;4899060;29;20049;-95
2023/10/03 11:01:53;;;;;;;908.33;818.65;;;16.00;99.90;;;;;;4894882;29;20060;-94
2023/10/03 11:04:25;;;;;;;937.67;843.78;;;16.00;99.90;;;;;;4895957;29;20040;-95
2023/10/03 11:06:52;;;;;;;942.55;845.92;;;16.00;99.90;;;;;;4895771;29;20078;-95
2023/10/03 11:09:20;;;;;;;966.65;865.25;;;16.00;99.90;;;;;;4894986;29;20080;-95
2023/10/03 11:11:47;;;;;;;859.00;778.15;;;15.90;99.90;;;;;;4897411;29;20048;-93
2023/10/03 11:14:29;;;;;;;864.58;782.78;;;16.00;99.90;;;;;;4898644;29;20056;-94
2023/10/03 11:16:56;;;;;;;858.25;777.30;;;16.00;99.90;;;;;;4893413;29;20135;-94
2023/10/03 11:19:22;;;;;;;835.08;756.70;;;16.00;99.90;;;;;;4900473;29;20044;-95
2023/10/03 11:21:48;;;;;;;767.38;698.17;;;16.10;99.90;;;;;;4897537;29;20048;-94
2023/10/03 11:24:21;;;;;;;731.67;667.10;;;16.10;99.90;;;;;;4898595;29;20390;-95
2023/10/03 11:26:50;;;;;;;774.55;704.80;;;16.10;99.90;;;;;;4898605;29;20048;-95
2023/10/03 11:29:37;;;;;;;720.78;657.05;;;16.10;99.90;;;;;;4887895;29;20036;-93
2023/10/03 11:32:04;;;;;;;758.33;686.92;;;16.10;99.90;;;;;;4901138;29;20044;-94
2023/10/03 11:34:34;;;;;;;782.58;708.45;;;16.10;99.90;;;;;;4900361;29;20082;-95
2023/10/03 11:37:02;;;;;;;828.10;744.58;;;16.10;99.90;;;;;;4898796;29;20055;-94
2023/10/03 11:39:35;;;;;;;826.67;743.78;;;16.00;99.90;;;;;;4899664;29;20718;-95
2023/10/03 11:42:07;;;;;;;901.28;808.03;;;16.00;99.90;;;;;;4901171;29;20123;-94
2023/10/03 11:44:33;;;;;;;894.10;800.38;;;16.10;99.90;;;;;;4902227;29;20047;-94
2023/10/03 11:46:59;;;;;;;859.13;772.08;;;16.20;99.90;;;;;;4883906;29;20047;-93
2023/10/03 11:49:25;;;;;;;874.58;782.08;;;16.30;99.90;;;;;;4890474;29;20052;-93
2023/10/03 11:51:51;;;;;;;907.67;810.13;;;16.30;99.90;;;;;;4895679;29;20127;-95
2023/10/03 11:54:56;;;;;;;;;;;;;;;;;;;;;
2023/10/03 11:58:18;;;;;;;893.15;799.28;;;16.30;99.90;;;;;;4917460;29;20048;-96
2023/10/03 12:01:03;;;;;;;876.42;784.05;;;16.30;99.90;;;;;;4891098;29;20524;-93
2023/10/03 12:03:30;;;;;;;846.15;759.80;;;16.30;99.90;;;;;;4899136;29;20044;-94
2023/10/03 12:05:58;;;;;;;855.90;766.80;;;16.30;99.90;;;;;;4899988;29;20044;-95
2023/10/03 12:08:32;;;;;;;891.50;798.00;;;16.30;99.90;;;;;;4893312;29;20413;-94
2023/10/03 12:11:00;;;;;;;831.08;748.15;;;16.30;99.90;;;;;;4882205;29;20400;-92
2023/10/03 12:13:26;;;;;;;865.85;776.75;;;16.20;99.90;;;;;;4895513;29;20044;-92
2023/10/03 12:15:52;;;;;;;776.38;702.45;;;16.20;99.90;;;;;;4892692;29;20071;-91
2023/10/03 12:18:19;;;;;;;796.00;721.33;;;16.10;99.90;;;;;;4899465;29;20118;-94
2023/10/03 12:20:44;;;;;;;857.63;775.38;;;16.00;99.90;;;;;;4896828;29;20112;-93
2023/10/03 12:23:10;;;;;;;740.30;673.95;;;15.80;99.90;;;;;;4895818;29;20588;-93
2023/10/03 12:25:36;;;;;;;730.20;666.47;;;15.60;99.90;;;;;;4890921;29;20131;-93
2023/10/03 12:28:02;;;;;;;810.22;735.67;;;15.40;99.90;;;;;;4887959;29;20047;-92